sensor_id;sensor_type;location;lat;lon;timestamp;P1;durP1;ratioP1;P2;durP2;ratioP2
51943;SDS011;37969;53.132;6.370;2023-05-08T00:01:14;20.35;;;17.85;;
51943;SDS011;37969;53.132;6.370;2023-05-08T00:03:41;20.30;;;16.98;;
51943;SDS011;37969;53.132;6.370;2023-05-08T00:06:07;20.17;;;18.05;;
51943;SDS011;37969;53.132;6.370;2023-05-08T00:08:33;21.85;;;19.60;;
51943;SDS011;37969;53.132;6.370;2023-05-08T00:11:00;20.25;;;18.15;;
51943;SDS011;37969;53.132;6.370;2023-05-08T00:13:26;22.48;;;18.70;;
51943;SDS011;37969;53.132;6.370;2023-05-08T00:15:52;20.02;;;17.92;;
51943;SDS011;37969;53.132;6.370;2023-05-08T00:18:18;20.92;;;18.73;;
51943;SDS011;37969;53.132;6.370;2023-05-08T00:20:44;20.08;;;17.98;;
51943;SDS011;37969;53.132;6.370;2023-05-08T00:23:10;19.88;;;17.55;;
51943;SDS011;37969;53.132;6.370;2023-05-08T00:25:36;21.95;;;18.80;;
51943;SDS011;37969;53.132;6.370;2023-05-08T00:28:02;21.30;;;18.30;;
51943;SDS011;37969;53.132;6.370;2023-05-08T00:30:29;21.17;;;18.92;;
51943;SDS011;37969;53.132;6.370;2023-05-08T00:32:55;20.50;;;18.40;;
51943;SDS011;37969;53.132;6.370;2023-05-08T00:35:21;20.98;;;18.88;;
51943;SDS011;37969;53.132;6.370;2023-05-08T00:37:47;21.30;;;19.10;;
51943;SDS011;37969;53.132;6.370;2023-05-08T00:40:13;22.08;;;19.67;;
51943;SDS011;37969;53.132;6.370;2023-05-08T00:42:40;21.73;;;19.48;;
51943;SDS011;37969;53.132;6.370;2023-05-08T00:45:06;20.85;;;18.67;;
51943;SDS011;37969;53.132;6.370;2023-05-08T00:47:33;21.85;;;19.55;;
51943;SDS011;37969;53.132;6.370;2023-05-08T00:49:59;21.77;;;19.52;;
51943;SDS011;37969;53.132;6.370;2023-05-08T00:52:26;21.58;;;19.35;;
51943;SDS011;37969;53.132;6.370;2023-05-08T00:54:53;22.50;;;20.13;;
51943;SDS011;37969;53.132;6.370;2023-05-08T00:57:19;22.30;;;19.70;;
51943;SDS011;37969;53.132;6.370;2023-05-08T00:59:45;23.35;;;19.65;;
51943;SDS011;37969;53.132;6.370;2023-05-08T01:02:12;22.05;;;19.75;;
51943;SDS011;37969;53.132;6.370;2023-05-08T01:04:39;22.42;;;20.02;;
51943;SDS011;37969;53.132;6.370;2023-05-08T01:07:05;23.63;;;20.38;;
51943;SDS011;37969;53.132;6.370;2023-05-08T01:09:31;24.98;;;20.90;;
51943;SDS011;37969;53.132;6.370;2023-05-08T01:12:04;22.20;;;19.80;;
51943;SDS011;37969;53.132;6.370;2023-05-08T01:14:46;22.75;;;20.15;;
51943;SDS011;37969;53.132;6.370;2023-05-08T01:17:27;22.48;;;20.10;;
51943;SDS011;37969;53.132;6.370;2023-05-08T01:22:44;24.98;;;20.92;;
51943;SDS011;37969;53.132;6.370;2023-05-08T01:28:00;23.00;;;20.63;;
51943;SDS011;37969;53.132;6.370;2023-05-08T01:30:40;24.52;;;21.98;;
51943;SDS011;37969;53.132;6.370;2023-05-08T01:33:14;23.73;;;19.83;;
51943;SDS011;37969;53.132;6.370;2023-05-08T01:35:43;24.15;;;20.83;;
51943;SDS011;37969;53.132;6.370;2023-05-08T01:38:13;25.02;;;21.40;;
51943;SDS011;37969;53.132;6.370;2023-05-08T01:40:49;22.75;;;20.05;;
51943;SDS011;37969;53.132;6.370;2023-05-08T01:43:19;25.63;;;21.23;;
51943;SDS011;37969;53.132;6.370;2023-05-08T01:45:50;27.35;;;21.50;;
51943;SDS011;37969;53.132;6.370;2023-05-08T01:48:18;23.33;;;20.80;;
51943;SDS011;37969;53.132;6.370;2023-05-08T01:50:46;23.23;;;20.35;;
51943;SDS011;37969;53.132;6.370;2023-05-08T01:53:21;23.42;;;20.92;;
51943;SDS011;37969;53.132;6.370;2023-05-08T01:55:50;22.75;;;19.65;;
51943;SDS011;37969;53.132;6.370;2023-05-08T01:58:18;24.92;;;21.75;;
51943;SDS011;37969;53.132;6.370;2023-05-08T02:00:45;25.38;;;21.33;;
51943;SDS011;37969;53.132;6.370;2023-05-08T02:03:12;23.70;;;21.23;;
51943;SDS011;37969;53.132;6.370;2023-05-08T02:05:39;24.10;;;21.60;;
51943;SDS011;37969;53.132;6.370;2023-05-08T02:08:08;25.27;;;22.35;;
51943;SDS011;37969;53.132;6.370;2023-05-08T02:10:36;24.75;;;22.10;;
51943;SDS011;37969;53.132;6.370;2023-05-08T02:13:03;23.90;;;20.88;;
51943;SDS011;37969;53.132;6.370;2023-05-08T02:15:29;24.30;;;21.85;;
51943;SDS011;37969;53.132;6.370;2023-05-08T02:18:00;24.50;;;21.90;;
51943;SDS011;37969;53.132;6.370;2023-05-08T02:20:27;23.55;;;21.10;;
51943;SDS011;37969;53.132;6.370;2023-05-08T02:22:54;25.80;;;22.25;;
51943;SDS011;37969;53.132;6.370;2023-05-08T02:25:20;24.63;;;22.13;;
51943;SDS011;37969;53.132;6.370;2023-05-08T02:27:47;24.45;;;21.85;;
51943;SDS011;37969;53.132;6.370;2023-05-08T02:30:15;25.65;;;22.33;;
51943;SDS011;37969;53.132;6.370;2023-05-08T02:32:42;29.48;;;23.40;;
51943;SDS011;37969;53.132;6.370;2023-05-08T02:35:13;25.48;;;22.48;;
51943;SDS011;37969;53.132;6.370;2023-05-08T02:37:40;25.38;;;22.45;;
51943;SDS011;37969;53.132;6.370;2023-05-08T02:40:07;24.58;;;20.95;;
51943;SDS011;37969;53.132;6.370;2023-05-08T02:42:35;27.00;;;21.90;;
51943;SDS011;37969;53.132;6.370;2023-05-08T02:45:01;23.85;;;21.30;;
51943;SDS011;37969;53.132;6.370;2023-05-08T02:47:33;27.35;;;22.67;;
51943;SDS011;37969;53.132;6.370;2023-05-08T02:50:05;24.58;;;21.70;;
51943;SDS011;37969;53.132;6.370;2023-05-08T02:52:36;25.58;;;22.25;;
51943;SDS011;37969;53.132;6.370;2023-05-08T02:55:09;26.50;;;22.55;;
51943;SDS011;37969;53.132;6.370;2023-05-08T02:57:38;25.77;;;21.70;;
51943;SDS011;37969;53.132;6.370;2023-05-08T03:00:11;24.52;;;21.92;;
51943;SDS011;37969;53.132;6.370;2023-05-08T03:02:40;29.02;;;22.98;;
51943;SDS011;37969;53.132;6.370;2023-05-08T03:05:12;24.13;;;21.52;;
51943;SDS011;37969;53.132;6.370;2023-05-08T03:07:39;26.98;;;23.55;;
51943;SDS011;37969;53.132;6.370;2023-05-08T03:10:06;24.30;;;21.80;;
51943;SDS011;37969;53.132;6.370;2023-05-08T03:12:35;27.77;;;22.33;;
51943;SDS011;37969;53.132;6.370;2023-05-08T03:15:06;25.95;;;22.23;;
51943;SDS011;37969;53.132;6.370;2023-05-08T03:17:34;26.35;;;22.20;;
51943;SDS011;37969;53.132;6.370;2023-05-08T03:20:03;24.45;;;21.85;;
51943;SDS011;37969;53.132;6.370;2023-05-08T03:22:30;24.73;;;21.40;;
51943;SDS011;37969;53.132;6.370;2023-05-08T03:24:58;25.20;;;22.55;;
51943;SDS011;37969;53.132;6.370;2023-05-08T03:27:25;27.33;;;23.25;;
51943;SDS011;37969;53.132;6.370;2023-05-08T03:29:52;25.13;;;22.35;;
51943;SDS011;37969;53.132;6.370;2023-05-08T03:32:19;29.23;;;23.58;;
51943;SDS011;37969;53.132;6.370;2023-05-08T03:34:46;28.02;;;23.70;;
51943;SDS011;37969;53.132;6.370;2023-05-08T03:37:13;27.45;;;24.52;;
51943;SDS011;37969;53.132;6.370;2023-05-08T03:39:39;27.42;;;23.50;;
51943;SDS011;37969;53.132;6.370;2023-05-08T03:42:05;26.73;;;23.23;;
51943;SDS011;37969;53.132;6.370;2023-05-08T03:44:31;27.38;;;24.10;;
51943;SDS011;37969;53.132;6.370;2023-05-08T03:46:58;27.23;;;24.20;;
51943;SDS011;37969;53.132;6.370;2023-05-08T03:49:25;27.30;;;24.33;;
51943;SDS011;37969;53.132;6.370;2023-05-08T03:51:52;25.77;;;22.92;;
51943;SDS011;37969;53.132;6.370;2023-05-08T03:54:19;26.83;;;23.65;;
51943;SDS011;37969;53.132;6.370;2023-05-08T03:56:50;28.15;;;23.63;;
51943;SDS011;37969;53.132;6.370;2023-05-08T03:59:20;26.67;;;23.75;;
51943;SDS011;37969;53.132;6.370;2023-05-08T04:01:49;30.63;;;25.88;;
51943;SDS011;37969;53.132;6.370;2023-05-08T04:04:23;32.47;;;24.27;;
51943;SDS011;37969;53.132;6.370;2023-05-08T04:07:02;27.65;;;24.33;;
51943;SDS011;37969;53.132;6.370;2023-05-08T04:12:13;28.38;;;24.30;;
51943;SDS011;37969;53.132;6.370;2023-05-08T04:14:42;29.13;;;24.05;;
51943;SDS011;37969;53.132;6.370;2023-05-08T04:17:09;29.02;;;24.15;;
51943;SDS011;37969;53.132;6.370;2023-05-08T04:19:37;28.02;;;24.92;;
51943;SDS011;37969;53.132;6.370;2023-05-08T04:22:05;29.25;;;24.67;;
51943;SDS011;37969;53.132;6.370;2023-05-08T04:24:33;30.20;;;24.20;;
51943;SDS011;37969;53.132;6.370;2023-05-08T04:27:00;27.23;;;24.02;;
51943;SDS011;37969;53.132;6.370;2023-05-08T04:29:27;26.95;;;23.77;;
51943;SDS011;37969;53.132;6.370;2023-05-08T04:31:53;27.80;;;24.00;;
51943;SDS011;37969;53.132;6.370;2023-05-08T04:34:19;26.52;;;22.67;;
51943;SDS011;37969;53.132;6.370;2023-05-08T04:36:45;26.00;;;23.08;;
51943;SDS011;37969;53.132;6.370;2023-05-08T04:39:12;27.00;;;24.10;;
51943;SDS011;37969;53.132;6.370;2023-05-08T04:41:38;28.35;;;23.25;;
51943;SDS011;37969;53.132;6.370;2023-05-08T04:44:05;28.27;;;23.27;;
51943;SDS011;37969;53.132;6.370;2023-05-08T04:46:31;25.58;;;22.08;;
51943;SDS011;37969;53.132;6.370;2023-05-08T04:48:57;25.58;;;22.80;;
51943;SDS011;37969;53.132;6.370;2023-05-08T04:51:23;25.70;;;22.70;;
51943;SDS011;37969;53.132;6.370;2023-05-08T04:53:49;25.75;;;22.95;;
51943;SDS011;37969;53.132;6.370;2023-05-08T04:56:15;26.75;;;22.00;;
51943;SDS011;37969;53.132;6.370;2023-05-08T04:58:43;24.25;;;21.30;;
51943;SDS011;37969;53.132;6.370;2023-05-08T05:01:09;23.60;;;21.08;;
51943;SDS011;37969;53.132;6.370;2023-05-08T05:03:35;26.40;;;21.80;;
51943;SDS011;37969;53.132;6.370;2023-05-08T05:06:01;25.35;;;20.35;;
51943;SDS011;37969;53.132;6.370;2023-05-08T05:08:28;23.85;;;21.25;;
51943;SDS011;37969;53.132;6.370;2023-05-08T05:10:54;24.38;;;20.90;;
51943;SDS011;37969;53.132;6.370;2023-05-08T05:13:20;24.23;;;21.33;;
51943;SDS011;37969;53.132;6.370;2023-05-08T05:15:46;23.38;;;20.90;;
51943;SDS011;37969;53.132;6.370;2023-05-08T05:18:15;23.55;;;20.77;;
51943;SDS011;37969;53.132;6.370;2023-05-08T05:20:41;22.77;;;20.48;;
51943;SDS011;37969;53.132;6.370;2023-05-08T05:23:07;22.08;;;19.77;;
51943;SDS011;37969;53.132;6.370;2023-05-08T05:25:33;20.80;;;18.63;;
51943;SDS011;37969;53.132;6.370;2023-05-08T05:28:00;21.60;;;19.40;;
51943;SDS011;37969;53.132;6.370;2023-05-08T05:30:26;21.63;;;19.33;;
51943;SDS011;37969;53.132;6.370;2023-05-08T05:32:52;21.30;;;19.00;;
51943;SDS011;37969;53.132;6.370;2023-05-08T05:35:18;20.52;;;18.42;;
51943;SDS011;37969;53.132;6.370;2023-05-08T05:37:44;20.88;;;18.67;;
51943;SDS011;37969;53.132;6.370;2023-05-08T05:40:10;20.38;;;18.25;;
51943;SDS011;37969;53.132;6.370;2023-05-08T05:42:37;20.17;;;18.02;;
51943;SDS011;37969;53.132;6.370;2023-05-08T05:45:04;19.88;;;17.77;;
51943;SDS011;37969;53.132;6.370;2023-05-08T05:47:30;20.75;;;18.63;;
51943;SDS011;37969;53.132;6.370;2023-05-08T05:49:56;18.98;;;17.15;;
51943;SDS011;37969;53.132;6.370;2023-05-08T05:52:22;19.90;;;18.00;;
51943;SDS011;37969;53.132;6.370;2023-05-08T05:54:49;18.30;;;16.42;;
51943;SDS011;37969;53.132;6.370;2023-05-08T05:57:15;19.40;;;17.23;;
51943;SDS011;37969;53.132;6.370;2023-05-08T05:59:41;19.30;;;17.17;;
51943;SDS011;37969;53.132;6.370;2023-05-08T06:02:08;19.45;;;16.77;;
51943;SDS011;37969;53.132;6.370;2023-05-08T06:07:04;18.42;;;16.42;;
51943;SDS011;37969;53.132;6.370;2023-05-08T06:09:30;20.85;;;16.90;;
51943;SDS011;37969;53.132;6.370;2023-05-08T06:11:56;18.55;;;16.48;;
51943;SDS011;37969;53.132;6.370;2023-05-08T06:14:23;17.35;;;15.65;;
51943;SDS011;37969;53.132;6.370;2023-05-08T06:16:49;18.92;;;16.17;;
51943;SDS011;37969;53.132;6.370;2023-05-08T06:19:15;17.35;;;15.57;;
51943;SDS011;37969;53.132;6.370;2023-05-08T06:21:42;18.02;;;16.17;;
51943;SDS011;37969;53.132;6.370;2023-05-08T06:24:08;18.55;;;16.77;;
51943;SDS011;37969;53.132;6.370;2023-05-08T06:26:34;17.90;;;16.17;;
51943;SDS011;37969;53.132;6.370;2023-05-08T06:29:00;16.80;;;15.20;;
51943;SDS011;37969;53.132;6.370;2023-05-08T06:31:26;18.98;;;16.45;;
51943;SDS011;37969;53.132;6.370;2023-05-08T06:33:52;19.58;;;16.05;;
51943;SDS011;37969;53.132;6.370;2023-05-08T06:36:18;17.60;;;15.80;;
51943;SDS011;37969;53.132;6.370;2023-05-08T06:38:44;17.40;;;15.73;;
51943;SDS011;37969;53.132;6.370;2023-05-08T06:41:11;17.10;;;15.32;;
51943;SDS011;37969;53.132;6.370;2023-05-08T06:43:37;18.40;;;16.50;;
51943;SDS011;37969;53.132;6.370;2023-05-08T06:46:03;17.10;;;15.48;;
51943;SDS011;37969;53.132;6.370;2023-05-08T06:48:29;17.75;;;15.55;;
51943;SDS011;37969;53.132;6.370;2023-05-08T06:50:55;17.13;;;15.27;;
51943;SDS011;37969;53.132;6.370;2023-05-08T06:53:21;16.55;;;14.82;;
51943;SDS011;37969;53.132;6.370;2023-05-08T06:55:47;16.67;;;14.98;;
51943;SDS011;37969;53.132;6.370;2023-05-08T06:58:13;16.92;;;15.13;;
51943;SDS011;37969;53.132;6.370;2023-05-08T07:00:40;16.60;;;14.90;;
51943;SDS011;37969;53.132;6.370;2023-05-08T07:03:07;17.42;;;15.73;;
51943;SDS011;37969;53.132;6.370;2023-05-08T07:05:33;19.40;;;15.45;;
51943;SDS011;37969;53.132;6.370;2023-05-08T07:07:59;16.27;;;14.68;;
51943;SDS011;37969;53.132;6.370;2023-05-08T07:10:25;16.00;;;14.48;;
51943;SDS011;37969;53.132;6.370;2023-05-08T07:12:51;16.63;;;14.98;;
51943;SDS011;37969;53.132;6.370;2023-05-08T07:15:18;16.58;;;14.95;;
51943;SDS011;37969;53.132;6.370;2023-05-08T07:17:44;17.30;;;14.82;;
51943;SDS011;37969;53.132;6.370;2023-05-08T07:20:10;16.42;;;14.90;;
51943;SDS011;37969;53.132;6.370;2023-05-08T07:22:37;15.80;;;14.30;;
51943;SDS011;37969;53.132;6.370;2023-05-08T07:25:03;15.82;;;14.32;;
51943;SDS011;37969;53.132;6.370;2023-05-08T07:27:29;14.85;;;13.45;;
51943;SDS011;37969;53.132;6.370;2023-05-08T07:29:55;15.65;;;14.00;;
51943;SDS011;37969;53.132;6.370;2023-05-08T07:32:23;19.40;;;14.38;;
51943;SDS011;37969;53.132;6.370;2023-05-08T07:34:49;14.38;;;12.98;;
51943;SDS011;37969;53.132;6.370;2023-05-08T07:37:15;15.18;;;13.57;;
51943;SDS011;37969;53.132;6.370;2023-05-08T07:39:41;15.32;;;13.68;;
51943;SDS011;37969;53.132;6.370;2023-05-08T07:42:07;14.88;;;13.50;;
51943;SDS011;37969;53.132;6.370;2023-05-08T07:44:33;15.63;;;13.75;;
51943;SDS011;37969;53.132;6.370;2023-05-08T07:47:00;14.82;;;13.32;;
51943;SDS011;37969;53.132;6.370;2023-05-08T07:49:26;14.80;;;13.40;;
51943;SDS011;37969;53.132;6.370;2023-05-08T07:51:52;14.57;;;12.98;;
51943;SDS011;37969;53.132;6.370;2023-05-08T07:54:18;15.27;;;13.65;;
51943;SDS011;37969;53.132;6.370;2023-05-08T07:56:44;16.00;;;14.30;;
51943;SDS011;37969;53.132;6.370;2023-05-08T07:59:11;16.23;;;14.20;;
51943;SDS011;37969;53.132;6.370;2023-05-08T08:01:37;14.23;;;12.88;;
51943;SDS011;37969;53.132;6.370;2023-05-08T08:04:03;14.27;;;12.98;;
51943;SDS011;37969;53.132;6.370;2023-05-08T08:06:30;15.98;;;12.88;;
51943;SDS011;37969;53.132;6.370;2023-05-08T08:08:56;13.73;;;12.52;;
51943;SDS011;37969;53.132;6.370;2023-05-08T08:11:22;13.98;;;12.68;;
51943;SDS011;37969;53.132;6.370;2023-05-08T08:13:48;14.55;;;13.25;;
51943;SDS011;37969;53.132;6.370;2023-05-08T08:16:15;15.13;;;13.63;;
51943;SDS011;37969;53.132;6.370;2023-05-08T08:18:41;14.52;;;12.85;;
51943;SDS011;37969;53.132;6.370;2023-05-08T08:21:07;13.95;;;12.50;;
51943;SDS011;37969;53.132;6.370;2023-05-08T08:23:33;15.27;;;13.55;;
51943;SDS011;37969;53.132;6.370;2023-05-08T08:25:59;14.13;;;12.82;;
51943;SDS011;37969;53.132;6.370;2023-05-08T08:28:26;13.55;;;12.25;;
51943;SDS011;37969;53.132;6.370;2023-05-08T08:30:52;15.25;;;13.93;;
51943;SDS011;37969;53.132;6.370;2023-05-08T08:33:18;14.35;;;13.05;;
51943;SDS011;37969;53.132;6.370;2023-05-08T08:35:44;16.42;;;14.50;;
51943;SDS011;37969;53.132;6.370;2023-05-08T08:38:10;17.15;;;15.55;;
51943;SDS011;37969;53.132;6.370;2023-05-08T08:40:40;14.35;;;12.95;;
51943;SDS011;37969;53.132;6.370;2023-05-08T08:43:07;15.88;;;14.27;;
51943;SDS011;37969;53.132;6.370;2023-05-08T08:45:35;15.10;;;13.55;;
51943;SDS011;37969;53.132;6.370;2023-05-08T08:48:01;14.68;;;13.27;;
51943;SDS011;37969;53.132;6.370;2023-05-08T08:50:29;15.18;;;13.68;;
51943;SDS011;37969;53.132;6.370;2023-05-08T08:53:06;16.00;;;14.23;;
51943;SDS011;37969;53.132;6.370;2023-05-08T08:55:38;15.40;;;13.57;;
51943;SDS011;37969;53.132;6.370;2023-05-08T08:58:13;14.65;;;13.35;;
51943;SDS011;37969;53.132;6.370;2023-05-08T09:00:40;15.07;;;13.57;;
51943;SDS011;37969;53.132;6.370;2023-05-08T09:03:06;14.45;;;13.00;;
51943;SDS011;37969;53.132;6.370;2023-05-08T09:05:33;14.55;;;13.07;;
51943;SDS011;37969;53.132;6.370;2023-05-08T09:07:59;15.27;;;13.77;;
51943;SDS011;37969;53.132;6.370;2023-05-08T09:10:26;14.70;;;13.32;;
51943;SDS011;37969;53.132;6.370;2023-05-08T09:12:52;13.70;;;12.40;;
51943;SDS011;37969;53.132;6.370;2023-05-08T09:15:18;13.98;;;12.75;;
51943;SDS011;37969;53.132;6.370;2023-05-08T09:17:44;15.27;;;13.73;;
51943;SDS011;37969;53.132;6.370;2023-05-08T09:20:12;14.88;;;13.45;;
51943;SDS011;37969;53.132;6.370;2023-05-08T09:22:39;14.52;;;13.02;;
51943;SDS011;37969;53.132;6.370;2023-05-08T09:25:05;14.93;;;13.20;;
51943;SDS011;37969;53.132;6.370;2023-05-08T09:27:32;14.40;;;12.90;;
51943;SDS011;37969;53.132;6.370;2023-05-08T09:30:01;13.40;;;12.20;;
51943;SDS011;37969;53.132;6.370;2023-05-08T09:32:28;14.82;;;13.25;;
51943;SDS011;37969;53.132;6.370;2023-05-08T09:34:55;14.02;;;12.70;;
51943;SDS011;37969;53.132;6.370;2023-05-08T09:37:21;13.75;;;12.35;;
51943;SDS011;37969;53.132;6.370;2023-05-08T09:39:47;14.23;;;13.02;;
51943;SDS011;37969;53.132;6.370;2023-05-08T09:42:14;15.88;;;14.38;;
51943;SDS011;37969;53.132;6.370;2023-05-08T09:44:47;15.35;;;13.95;;
51943;SDS011;37969;53.132;6.370;2023-05-08T09:47:15;15.18;;;13.75;;
51943;SDS011;37969;53.132;6.370;2023-05-08T09:49:55;14.90;;;13.55;;
51943;SDS011;37969;53.132;6.370;2023-05-08T09:54:48;14.77;;;12.88;;
51943;SDS011;37969;53.132;6.370;2023-05-08T09:57:21;15.32;;;13.82;;
51943;SDS011;37969;53.132;6.370;2023-05-08T09:59:47;14.40;;;13.00;;
51943;SDS011;37969;53.132;6.370;2023-05-08T10:02:13;15.63;;;14.02;;
51943;SDS011;37969;53.132;6.370;2023-05-08T10:04:41;15.68;;;14.30;;
51943;SDS011;37969;53.132;6.370;2023-05-08T10:07:07;16.63;;;15.02;;
51943;SDS011;37969;53.132;6.370;2023-05-08T10:09:33;15.63;;;14.13;;
51943;SDS011;37969;53.132;6.370;2023-05-08T10:11:59;16.42;;;14.15;;
51943;SDS011;37969;53.132;6.370;2023-05-08T10:14:25;16.10;;;14.55;;
51943;SDS011;37969;53.132;6.370;2023-05-08T10:16:52;16.30;;;14.73;;
51943;SDS011;37969;53.132;6.370;2023-05-08T10:19:20;15.85;;;14.25;;
51943;SDS011;37969;53.132;6.370;2023-05-08T10:21:47;15.52;;;14.13;;
51943;SDS011;37969;53.132;6.370;2023-05-08T10:24:15;16.38;;;14.98;;
51943;SDS011;37969;53.132;6.370;2023-05-08T10:26:43;15.23;;;13.93;;
51943;SDS011;37969;53.132;6.370;2023-05-08T10:29:12;17.00;;;15.35;;
51943;SDS011;37969;53.132;6.370;2023-05-08T10:31:43;18.63;;;15.25;;
51943;SDS011;37969;53.132;6.370;2023-05-08T10:34:12;15.65;;;13.85;;
51943;SDS011;37969;53.132;6.370;2023-05-08T10:36:39;15.47;;;13.87;;
51943;SDS011;37969;53.132;6.370;2023-05-08T10:39:06;15.95;;;14.38;;
51943;SDS011;37969;53.132;6.370;2023-05-08T10:41:32;17.38;;;14.63;;
51943;SDS011;37969;53.132;6.370;2023-05-08T10:44:00;16.98;;;15.23;;
51943;SDS011;37969;53.132;6.370;2023-05-08T10:46:29;18.08;;;15.45;;
51943;SDS011;37969;53.132;6.370;2023-05-08T10:49:05;15.35;;;14.05;;
51943;SDS011;37969;53.132;6.370;2023-05-08T10:51:40;16.05;;;14.45;;
51943;SDS011;37969;53.132;6.370;2023-05-08T10:54:11;17.65;;;15.85;;
51943;SDS011;37969;53.132;6.370;2023-05-08T10:59:04;18.77;;;16.17;;
51943;SDS011;37969;53.132;6.370;2023-05-08T11:01:30;17.60;;;15.75;;
51943;SDS011;37969;53.132;6.370;2023-05-08T11:03:57;16.63;;;15.02;;
51943;SDS011;37969;53.132;6.370;2023-05-08T11:09:09;16.85;;;15.15;;
51943;SDS011;37969;53.132;6.370;2023-05-08T11:11:39;16.23;;;14.73;;
51943;SDS011;37969;53.132;6.370;2023-05-08T11:14:11;16.90;;;15.23;;
51943;SDS011;37969;53.132;6.370;2023-05-08T11:19:29;17.05;;;15.30;;
51943;SDS011;37969;53.132;6.370;2023-05-08T11:22:11;16.58;;;14.90;;
51943;SDS011;37969;53.132;6.370;2023-05-08T11:24:38;15.88;;;14.38;;
51943;SDS011;37969;53.132;6.370;2023-05-08T11:27:05;17.73;;;15.95;;
51943;SDS011;37969;53.132;6.370;2023-05-08T11:29:31;17.60;;;15.98;;
51943;SDS011;37969;53.132;6.370;2023-05-08T11:31:58;17.67;;;15.95;;
51943;SDS011;37969;53.132;6.370;2023-05-08T11:37:08;17.52;;;15.82;;
51943;SDS011;37969;53.132;6.370;2023-05-08T11:39:35;16.95;;;15.15;;
51943;SDS011;37969;53.132;6.370;2023-05-08T11:44:45;16.30;;;14.57;;
51943;SDS011;37969;53.132;6.370;2023-05-08T11:47:13;17.98;;;15.10;;
51943;SDS011;37969;53.132;6.370;2023-05-08T11:49:43;16.23;;;14.63;;
51943;SDS011;37969;53.132;6.370;2023-05-08T11:52:09;18.73;;;16.83;;
51943;SDS011;37969;53.132;6.370;2023-05-08T11:54:36;17.55;;;15.85;;
51943;SDS011;37969;53.132;6.370;2023-05-08T11:57:02;17.48;;;15.95;;
51943;SDS011;37969;53.132;6.370;2023-05-08T11:59:33;17.15;;;14.70;;
51943;SDS011;37969;53.132;6.370;2023-05-08T12:02:00;16.02;;;14.52;;
51943;SDS011;37969;53.132;6.370;2023-05-08T12:04:26;15.98;;;14.40;;
51943;SDS011;37969;53.132;6.370;2023-05-08T12:06:55;15.80;;;14.32;;
51943;SDS011;37969;53.132;6.370;2023-05-08T12:09:23;19.38;;;15.80;;
51943;SDS011;37969;53.132;6.370;2023-05-08T12:11:50;17.42;;;15.60;;
51943;SDS011;37969;53.132;6.370;2023-05-08T12:14:21;16.60;;;15.10;;
51943;SDS011;37969;53.132;6.370;2023-05-08T12:16:48;18.35;;;16.45;;
51943;SDS011;37969;53.132;6.370;2023-05-08T12:19:14;18.30;;;16.38;;
51943;SDS011;37969;53.132;6.370;2023-05-08T12:21:46;17.50;;;15.63;;
51943;SDS011;37969;53.132;6.370;2023-05-08T12:24:13;17.33;;;15.57;;
51943;SDS011;37969;53.132;6.370;2023-05-08T12:26:41;16.30;;;14.60;;
51943;SDS011;37969;53.132;6.370;2023-05-08T12:29:07;18.02;;;16.15;;
51943;SDS011;37969;53.132;6.370;2023-05-08T12:31:34;17.08;;;15.13;;
51943;SDS011;37969;53.132;6.370;2023-05-08T12:34:02;15.25;;;13.95;;
51943;SDS011;37969;53.132;6.370;2023-05-08T12:36:32;14.68;;;13.32;;
51943;SDS011;37969;53.132;6.370;2023-05-08T12:41:24;15.48;;;14.07;;
51943;SDS011;37969;53.132;6.370;2023-05-08T12:43:50;16.42;;;14.82;;
51943;SDS011;37969;53.132;6.370;2023-05-08T12:46:16;18.67;;;16.10;;
51943;SDS011;37969;53.132;6.370;2023-05-08T12:48:42;18.55;;;16.67;;
51943;SDS011;37969;53.132;6.370;2023-05-08T12:51:09;16.65;;;15.05;;
51943;SDS011;37969;53.132;6.370;2023-05-08T12:53:36;18.10;;;16.30;;
51943;SDS011;37969;53.132;6.370;2023-05-08T12:56:03;18.50;;;16.77;;
51943;SDS011;37969;53.132;6.370;2023-05-08T12:58:31;20.08;;;17.60;;
51943;SDS011;37969;53.132;6.370;2023-05-08T13:01:07;18.02;;;16.23;;
51943;SDS011;37969;53.132;6.370;2023-05-08T13:03:36;21.35;;;17.63;;
51943;SDS011;37969;53.132;6.370;2023-05-08T13:06:02;17.75;;;16.05;;
51943;SDS011;37969;53.132;6.370;2023-05-08T13:08:29;18.38;;;16.50;;
51943;SDS011;37969;53.132;6.370;2023-05-08T13:10:57;19.00;;;17.13;;
51943;SDS011;37969;53.132;6.370;2023-05-08T13:13:23;17.70;;;15.95;;
51943;SDS011;37969;53.132;6.370;2023-05-08T13:15:50;19.13;;;17.23;;
51943;SDS011;37969;53.132;6.370;2023-05-08T13:18:17;20.13;;;18.02;;
51943;SDS011;37969;53.132;6.370;2023-05-08T13:20:43;20.27;;;18.15;;
51943;SDS011;37969;53.132;6.370;2023-05-08T13:23:10;18.25;;;16.55;;
51943;SDS011;37969;53.132;6.370;2023-05-08T13:25:37;18.98;;;17.27;;
51943;SDS011;37969;53.132;6.370;2023-05-08T13:28:04;20.83;;;18.83;;
51943;SDS011;37969;53.132;6.370;2023-05-08T13:30:31;20.08;;;18.00;;
51943;SDS011;37969;53.132;6.370;2023-05-08T13:32:57;19.58;;;17.65;;
51943;SDS011;37969;53.132;6.370;2023-05-08T13:35:24;18.83;;;17.02;;
51943;SDS011;37969;53.132;6.370;2023-05-08T13:37:52;19.80;;;17.85;;
51943;SDS011;37969;53.132;6.370;2023-05-08T13:40:19;18.23;;;16.50;;
51943;SDS011;37969;53.132;6.370;2023-05-08T13:42:45;26.42;;;18.27;;
51943;SDS011;37969;53.132;6.370;2023-05-08T13:45:11;21.13;;;19.02;;
51943;SDS011;37969;53.132;6.370;2023-05-08T13:47:40;20.58;;;18.60;;
51943;SDS011;37969;53.132;6.370;2023-05-08T13:50:07;19.20;;;17.40;;
51943;SDS011;37969;53.132;6.370;2023-05-08T13:52:34;19.98;;;18.08;;
51943;SDS011;37969;53.132;6.370;2023-05-08T13:55:00;21.55;;;16.83;;
51943;SDS011;37969;53.132;6.370;2023-05-08T13:57:27;19.67;;;17.67;;
51943;SDS011;37969;53.132;6.370;2023-05-08T13:59:53;20.65;;;18.67;;
51943;SDS011;37969;53.132;6.370;2023-05-08T14:02:19;18.08;;;16.27;;
51943;SDS011;37969;53.132;6.370;2023-05-08T14:04:45;17.30;;;15.35;;
51943;SDS011;37969;53.132;6.370;2023-05-08T14:07:11;17.67;;;15.88;;
51943;SDS011;37969;53.132;6.370;2023-05-08T14:09:37;17.23;;;15.63;;
51943;SDS011;37969;53.132;6.370;2023-05-08T14:12:04;16.27;;;14.82;;
51943;SDS011;37969;53.132;6.370;2023-05-08T14:14:30;16.73;;;15.13;;
51943;SDS011;37969;53.132;6.370;2023-05-08T14:16:56;17.27;;;14.68;;
51943;SDS011;37969;53.132;6.370;2023-05-08T14:19:22;15.98;;;14.40;;
51943;SDS011;37969;53.132;6.370;2023-05-08T14:21:48;17.23;;;15.48;;
51943;SDS011;37969;53.132;6.370;2023-05-08T14:24:15;17.35;;;15.52;;
51943;SDS011;37969;53.132;6.370;2023-05-08T14:26:41;16.90;;;15.40;;
51943;SDS011;37969;53.132;6.370;2023-05-08T14:29:08;16.98;;;15.23;;
51943;SDS011;37969;53.132;6.370;2023-05-08T14:31:34;18.30;;;16.50;;
51943;SDS011;37969;53.132;6.370;2023-05-08T14:34:00;17.85;;;16.05;;
51943;SDS011;37969;53.132;6.370;2023-05-08T14:36:26;16.55;;;14.85;;
51943;SDS011;37969;53.132;6.370;2023-05-08T14:38:52;16.20;;;14.60;;
51943;SDS011;37969;53.132;6.370;2023-05-08T14:41:18;18.45;;;16.65;;
51943;SDS011;37969;53.132;6.370;2023-05-08T14:43:45;18.35;;;16.45;;
51943;SDS011;37969;53.132;6.370;2023-05-08T14:46:14;17.08;;;15.48;;
51943;SDS011;37969;53.132;6.370;2023-05-08T14:48:41;15.18;;;13.73;;
51943;SDS011;37969;53.132;6.370;2023-05-08T14:51:07;16.83;;;15.15;;